sensor_id;sensor_type;location;lat;lon;timestamp;temperature;humidity
6379;DHT22;3222;48.858;10.128;2023-10-08T00:01:43;14.00;98.00
6379;DHT22;3222;48.858;10.128;2023-10-08T00:04:09;14.10;97.90
6379;DHT22;3222;48.858;10.128;2023-10-08T00:06:44;14.00;97.60
6379;DHT22;3222;48.858;10.128;2023-10-08T00:09:11;14.10;98.20
6379;DHT22;3222;48.858;10.128;2023-10-08T00:11:37;14.10;98.00
6379;DHT22;3222;48.858;10.128;2023-10-08T00:14:04;14.10;97.80
6379;DHT22;3222;48.858;10.128;2023-10-08T00:16:39;14.20;97.90
6379;DHT22;3222;48.858;10.128;2023-10-08T00:19:08;14.20;97.50
6379;DHT22;3222;48.858;10.128;2023-10-08T00:21:34;14.10;97.70
6379;DHT22;3222;48.858;10.128;2023-10-08T00:24:02;14.30;97.50
6379;DHT22;3222;48.858;10.128;2023-10-08T00:26:31;14.20;97.60
6379;DHT22;3222;48.858;10.128;2023-10-08T00:31:25;14.20;97.00
6379;DHT22;3222;48.858;10.128;2023-10-08T00:33:56;14.20;97.50
6379;DHT22;3222;48.858;10.128;2023-10-08T00:36:22;14.30;97.30
6379;DHT22;3222;48.858;10.128;2023-10-08T00:38:50;14.20;97.60
6379;DHT22;3222;48.858;10.128;2023-10-08T00:41:20;14.20;96.90
6379;DHT22;3222;48.858;10.128;2023-10-08T00:43:49;14.20;97.70
6379;DHT22;3222;48.858;10.128;2023-10-08T00:46:16;14.30;97.70
6379;DHT22;3222;48.858;10.128;2023-10-08T00:48:53;14.20;98.00
6379;DHT22;3222;48.858;10.128;2023-10-08T00:51:22;14.10;97.90
6379;DHT22;3222;48.858;10.128;2023-10-08T00:53:56;14.20;97.90
6379;DHT22;3222;48.858;10.128;2023-10-08T00:56:29;14.20;98.00
6379;DHT22;3222;48.858;10.128;2023-10-08T00:59:13;14.20;97.80
6379;DHT22;3222;48.858;10.128;2023-10-08T01:01:43;14.10;98.00
6379;DHT22;3222;48.858;10.128;2023-10-08T01:04:20;14.00;97.20
6379;DHT22;3222;48.858;10.128;2023-10-08T01:06:53;14.10;97.80
6379;DHT22;3222;48.858;10.128;2023-10-08T01:09:25;14.20;97.90
6379;DHT22;3222;48.858;10.128;2023-10-08T01:12:22;14.20;97.90
6379;DHT22;3222;48.858;10.128;2023-10-08T01:14:49;14.00;97.70
6379;DHT22;3222;48.858;10.128;2023-10-08T01:17:20;14.10;98.00
6379;DHT22;3222;48.858;10.128;2023-10-08T01:19:49;14.10;98.10
6379;DHT22;3222;48.858;10.128;2023-10-08T01:22:20;14.00;98.10
6379;DHT22;3222;48.858;10.128;2023-10-08T01:24:48;14.00;98.20
6379;DHT22;3222;48.858;10.128;2023-10-08T01:27:18;14.00;98.10
6379;DHT22;3222;48.858;10.128;2023-10-08T01:29:54;14.10;98.20
6379;DHT22;3222;48.858;10.128;2023-10-08T01:32:20;14.10;98.10
6379;DHT22;3222;48.858;10.128;2023-10-08T01:34:48;14.10;97.80
6379;DHT22;3222;48.858;10.128;2023-10-08T01:37:18;14.10;98.10
6379;DHT22;3222;48.858;10.128;2023-10-08T01:39:47;14.10;98.50
6379;DHT22;3222;48.858;10.128;2023-10-08T01:42:16;14.10;98.00
6379;DHT22;3222;48.858;10.128;2023-10-08T01:44:46;14.10;97.90
6379;DHT22;3222;48.858;10.128;2023-10-08T01:47:13;14.10;97.90
6379;DHT22;3222;48.858;10.128;2023-10-08T01:49:39;14.00;97.70
6379;DHT22;3222;48.858;10.128;2023-10-08T01:52:06;14.00;98.00
6379;DHT22;3222;48.858;10.128;2023-10-08T01:54:40;14.00;97.90
6379;DHT22;3222;48.858;10.128;2023-10-08T01:57:06;14.00;98.10
6379;DHT22;3222;48.858;10.128;2023-10-08T01:59:34;14.00;98.30
6379;DHT22;3222;48.858;10.128;2023-10-08T02:02:00;14.00;98.30
6379;DHT22;3222;48.858;10.128;2023-10-08T02:04:26;14.00;98.60
6379;DHT22;3222;48.858;10.128;2023-10-08T02:06:51;13.80;98.30
6379;DHT22;3222;48.858;10.128;2023-10-08T02:09:17;13.80;98.70
6379;DHT22;3222;48.858;10.128;2023-10-08T02:11:46;13.90;98.90
6379;DHT22;3222;48.858;10.128;2023-10-08T02:14:16;13.90;99.00
6379;DHT22;3222;48.858;10.128;2023-10-08T02:16:43;14.00;98.90
6379;DHT22;3222;48.858;10.128;2023-10-08T02:19:10;14.10;98.90
6379;DHT22;3222;48.858;10.128;2023-10-08T02:21:39;14.00;98.70
6379;DHT22;3222;48.858;10.128;2023-10-08T02:24:08;14.10;98.80
6379;DHT22;3222;48.858;10.128;2023-10-08T02:26:37;14.00;98.80
6379;DHT22;3222;48.858;10.128;2023-10-08T02:29:04;13.80;98.90
6379;DHT22;3222;48.858;10.128;2023-10-08T02:31:38;13.90;99.10
6379;DHT22;3222;48.858;10.128;2023-10-08T02:34:05;13.90;98.90
6379;DHT22;3222;48.858;10.128;2023-10-08T02:36:36;13.90;98.80
6379;DHT22;3222;48.858;10.128;2023-10-08T02:39:03;13.90;99.00
6379;DHT22;3222;48.858;10.128;2023-10-08T02:41:52;14.00;98.80
6379;DHT22;3222;48.858;10.128;2023-10-08T02:44:18;14.00;98.60
6379;DHT22;3222;48.858;10.128;2023-10-08T02:46:48;14.00;98.60
6379;DHT22;3222;48.858;10.128;2023-10-08T02:49:15;14.00;98.60
6379;DHT22;3222;48.858;10.128;2023-10-08T02:51:47;14.00;98.60
6379;DHT22;3222;48.858;10.128;2023-10-08T02:54:15;14.00;98.80
6379;DHT22;3222;48.858;10.128;2023-10-08T02:56:48;14.00;98.80
6379;DHT22;3222;48.858;10.128;2023-10-08T02:59:18;13.90;98.80
6379;DHT22;3222;48.858;10.128;2023-10-08T03:01:47;14.10;98.80
6379;DHT22;3222;48.858;10.128;2023-10-08T03:04:15;14.00;99.10
6379;DHT22;3222;48.858;10.128;2023-10-08T03:06:45;14.00;98.80
6379;DHT22;3222;48.858;10.128;2023-10-08T03:09:21;14.00;98.70
6379;DHT22;3222;48.858;10.128;2023-10-08T03:11:51;13.90;98.80
6379;DHT22;3222;48.858;10.128;2023-10-08T03:14:19;13.90;99.00
6379;DHT22;3222;48.858;10.128;2023-10-08T03:16:52;14.00;98.80
6379;DHT22;3222;48.858;10.128;2023-10-08T03:19:21;14.00;98.60
6379;DHT22;3222;48.858;10.128;2023-10-08T03:21:48;14.00;98.70
6379;DHT22;3222;48.858;10.128;2023-10-08T03:24:17;13.90;98.60
6379;DHT22;3222;48.858;10.128;2023-10-08T03:26:59;14.00;98.70
6379;DHT22;3222;48.858;10.128;2023-10-08T03:29:54;13.90;98.80
6379;DHT22;3222;48.858;10.128;2023-10-08T03:32:24;13.90;98.70
6379;DHT22;3222;48.858;10.128;2023-10-08T03:34:52;13.80;98.80
6379;DHT22;3222;48.858;10.128;2023-10-08T03:37:22;13.90;99.00
6379;DHT22;3222;48.858;10.128;2023-10-08T03:39:55;13.80;98.80
6379;DHT22;3222;48.858;10.128;2023-10-08T03:42:48;13.80;98.80
6379;DHT22;3222;48.858;10.128;2023-10-08T03:45:15;13.90;98.80
6379;DHT22;3222;48.858;10.128;2023-10-08T03:47:48;13.80;98.80
6379;DHT22;3222;48.858;10.128;2023-10-08T03:50:29;13.90;98.90
6379;DHT22;3222;48.858;10.128;2023-10-08T03:53:08;13.80;98.90
6379;DHT22;3222;48.858;10.128;2023-10-08T03:55:39;13.80;99.10
6379;DHT22;3222;48.858;10.128;2023-10-08T03:58:08;13.80;99.00
6379;DHT22;3222;48.858;10.128;2023-10-08T04:00:48;13.80;99.00
6379;DHT22;3222;48.858;10.128;2023-10-08T04:03:14;13.80;99.00
6379;DHT22;3222;48.858;10.128;2023-10-08T04:05:49;13.90;99.10
6379;DHT22;3222;48.858;10.128;2023-10-08T04:08:37;13.80;98.90
6379;DHT22;3222;48.858;10.128;2023-10-08T04:11:09;13.90;99.00
6379;DHT22;3222;48.858;10.128;2023-10-08T04:13:58;13.80;99.00
6379;DHT22;3222;48.858;10.128;2023-10-08T04:16:32;13.80;99.00
6379;DHT22;3222;48.858;10.128;2023-10-08T04:19:03;13.80;99.00
6379;DHT22;3222;48.858;10.128;2023-10-08T04:21:29;13.80;98.90
6379;DHT22;3222;48.858;10.128;2023-10-08T04:23:55;13.80;99.00
6379;DHT22;3222;48.858;10.128;2023-10-08T04:26:23;13.90;98.80
6379;DHT22;3222;48.858;10.128;2023-10-08T04:28:56;13.90;98.90
6379;DHT22;3222;48.858;10.128;2023-10-08T04:31:31;13.70;98.90
6379;DHT22;3222;48.858;10.128;2023-10-08T04:34:06;13.70;98.90
6379;DHT22;3222;48.858;10.128;2023-10-08T04:36:36;13.80;98.90
6379;DHT22;3222;48.858;10.128;2023-10-08T04:39:04;13.90;98.90
6379;DHT22;3222;48.858;10.128;2023-10-08T04:41:42;13.80;98.70
6379;DHT22;3222;48.858;10.128;2023-10-08T04:44:11;13.80;98.60
6379;DHT22;3222;48.858;10.128;2023-10-08T04:46:44;13.80;98.60
6379;DHT22;3222;48.858;10.128;2023-10-08T04:49:16;13.80;98.70
6379;DHT22;3222;48.858;10.128;2023-10-08T04:51:58;13.80;98.80
6379;DHT22;3222;48.858;10.128;2023-10-08T04:54:27;13.70;99.00
6379;DHT22;3222;48.858;10.128;2023-10-08T04:56:57;13.60;99.00
6379;DHT22;3222;48.858;10.128;2023-10-08T04:59:24;13.60;99.20
6379;DHT22;3222;48.858;10.128;2023-10-08T05:01:58;13.70;99.10
6379;DHT22;3222;48.858;10.128;2023-10-08T05:04:55;13.80;99.10
6379;DHT22;3222;48.858;10.128;2023-10-08T05:07:48;13.80;99.10
6379;DHT22;3222;48.858;10.128;2023-10-08T05:10:14;13.90;99.20
6379;DHT22;3222;48.858;10.128;2023-10-08T05:12:49;13.70;99.10
6379;DHT22;3222;48.858;10.128;2023-10-08T05:15:33;13.80;99.20
6379;DHT22;3222;48.858;10.128;2023-10-08T05:18:01;13.90;99.30
6379;DHT22;3222;48.858;10.128;2023-10-08T05:20:40;13.90;99.20
6379;DHT22;3222;48.858;10.128;2023-10-08T05:23:25;13.80;99.20
6379;DHT22;3222;48.858;10.128;2023-10-08T05:25:52;13.80;99.20
6379;DHT22;3222;48.858;10.128;2023-10-08T05:28:38;13.90;99.20
6379;DHT22;3222;48.858;10.128;2023-10-08T05:31:28;13.80;99.20
6379;DHT22;3222;48.858;10.128;2023-10-08T05:34:18;13.80;99.40
6379;DHT22;3222;48.858;10.128;2023-10-08T05:36:48;13.80;99.30
6379;DHT22;3222;48.858;10.128;2023-10-08T05:39:23;13.90;99.40
6379;DHT22;3222;48.858;10.128;2023-10-08T05:42:03;13.90;99.40
6379;DHT22;3222;48.858;10.128;2023-10-08T05:44:41;13.80;99.30
6379;DHT22;3222;48.858;10.128;2023-10-08T05:47:14;13.80;99.40
6379;DHT22;3222;48.858;10.128;2023-10-08T05:49:59;13.80;99.50
6379;DHT22;3222;48.858;10.128;2023-10-08T05:52:43;13.80;99.50
6379;DHT22;3222;48.858;10.128;2023-10-08T05:55:24;13.80;99.60
6379;DHT22;3222;48.858;10.128;2023-10-08T05:58:07;13.70;99.70
6379;DHT22;3222;48.858;10.128;2023-10-08T06:00:44;13.70;99.90
6379;DHT22;3222;48.858;10.128;2023-10-08T06:03:19;13.70;99.80
6379;DHT22;3222;48.858;10.128;2023-10-08T06:06:08;13.70;99.70
6379;DHT22;3222;48.858;10.128;2023-10-08T06:08:40;13.70;99.60
6379;DHT22;3222;48.858;10.128;2023-10-08T06:11:39;13.70;99.70
6379;DHT22;3222;48.858;10.128;2023-10-08T06:14:21;13.70;99.60
6379;DHT22;3222;48.858;10.128;2023-10-08T06:17:06;13.70;99.70
6379;DHT22;3222;48.858;10.128;2023-10-08T06:20:01;13.80;99.60
6379;DHT22;3222;48.858;10.128;2023-10-08T06:22:35;13.90;99.80
6379;DHT22;3222;48.858;10.128;2023-10-08T06:25:01;13.70;99.90
6379;DHT22;3222;48.858;10.128;2023-10-08T06:27:42;13.70;99.90
6379;DHT22;3222;48.858;10.128;2023-10-08T06:30:12;13.80;99.80
6379;DHT22;3222;48.858;10.128;2023-10-08T06:32:43;13.80;99.80
6379;DHT22;3222;48.858;10.128;2023-10-08T06:35:10;13.80;99.70
6379;DHT22;3222;48.858;10.128;2023-10-08T06:37:44;13.90;99.80
6379;DHT22;3222;48.858;10.128;2023-10-08T06:40:11;13.90;99.90
6379;DHT22;3222;48.858;10.128;2023-10-08T06:42:57;13.80;99.80
6379;DHT22;3222;48.858;10.128;2023-10-08T06:45:25;13.90;99.90
6379;DHT22;3222;48.858;10.128;2023-10-08T06:47:53;13.90;99.90
6379;DHT22;3222;48.858;10.128;2023-10-08T06:50:19;13.80;99.90
6379;DHT22;3222;48.858;10.128;2023-10-08T06:52:47;13.90;99.90
6379;DHT22;3222;48.858;10.128;2023-10-08T06:55:14;13.90;99.90
6379;DHT22;3222;48.858;10.128;2023-10-08T06:57:43;14.10;99.90
6379;DHT22;3222;48.858;10.128;2023-10-08T07:00:09;14.00;99.90
6379;DHT22;3222;48.858;10.128;2023-10-08T07:02:58;14.00;99.90
6379;DHT22;3222;48.858;10.128;2023-10-08T07:05:23;14.00;99.80
6379;DHT22;3222;48.858;10.128;2023-10-08T07:07:49;14.00;99.90
6379;DHT22;3222;48.858;10.128;2023-10-08T07:10:18;14.00;99.90
6379;DHT22;3222;48.858;10.128;2023-10-08T07:12:45;14.00;99.90
6379;DHT22;3222;48.858;10.128;2023-10-08T07:15:12;14.00;99.90
6379;DHT22;3222;48.858;10.128;2023-10-08T07:17:39;14.10;99.90
6379;DHT22;3222;48.858;10.128;2023-10-08T07:20:08;14.30;99.90
6379;DHT22;3222;48.858;10.128;2023-10-08T07:22:47;14.10;99.90
6379;DHT22;3222;48.858;10.128;2023-10-08T07:25:23;14.10;99.90
6379;DHT22;3222;48.858;10.128;2023-10-08T07:27:49;14.00;99.90
6379;DHT22;3222;48.858;10.128;2023-10-08T07:30:14;14.30;99.90
6379;DHT22;3222;48.858;10.128;2023-10-08T07:32:52;14.30;99.90
6379;DHT22;3222;48.858;10.128;2023-10-08T07:35:20;14.30;99.90
6379;DHT22;3222;48.858;10.128;2023-10-08T07:37:46;14.30;99.90
6379;DHT22;3222;48.858;10.128;2023-10-08T07:40:13;14.30;99.90
6379;DHT22;3222;48.858;10.128;2023-10-08T07:42:40;14.30;99.90
6379;DHT22;3222;48.858;10.128;2023-10-08T07:45:06;14.30;99.90
6379;DHT22;3222;48.858;10.128;2023-10-08T07:47:31;14.30;99.90
6379;DHT22;3222;48.858;10.128;2023-10-08T07:49:57;14.20;99.90
6379;DHT22;3222;48.858;10.128;2023-10-08T07:52:24;14.20;99.90
6379;DHT22;3222;48.858;10.128;2023-10-08T07:54:50;14.20;99.90
6379;DHT22;3222;48.858;10.128;2023-10-08T07:57:16;14.20;99.90
6379;DHT22;3222;48.858;10.128;2023-10-08T07:59:52;14.20;99.90
6379;DHT22;3222;48.858;10.128;2023-10-08T08:02:20;14.20;99.90
6379;DHT22;3222;48.858;10.128;2023-10-08T08:04:52;14.40;99.90
6379;DHT22;3222;48.858;10.128;2023-10-08T08:07:19;14.40;99.90
6379;DHT22;3222;48.858;10.128;2023-10-08T08:09:46;14.50;99.90
6379;DHT22;3222;48.858;10.128;2023-10-08T08:12:24;14.40;99.90
6379;DHT22;3222;48.858;10.128;2023-10-08T08:14:54;14.40;99.90
6379;DHT22;3222;48.858;10.128;2023-10-08T08:17:20;14.60;99.90
6379;DHT22;3222;48.858;10.128;2023-10-08T08:19:49;14.50;99.90
6379;DHT22;3222;48.858;10.128;2023-10-08T08:22:17;14.70;99.90
6379;DHT22;3222;48.858;10.128;2023-10-08T08:24:56;14.70;99.90
6379;DHT22;3222;48.858;10.128;2023-10-08T08:27:28;14.70;99.90
6379;DHT22;3222;48.858;10.128;2023-10-08T08:29:58;14.80;99.90
6379;DHT22;3222;48.858;10.128;2023-10-08T08:32:39;14.80;99.90
6379;DHT22;3222;48.858;10.128;2023-10-08T08:35:09;14.90;99.90
6379;DHT22;3222;48.858;10.128;2023-10-08T08:37:35;15.00;99.90
6379;DHT22;3222;48.858;10.128;2023-10-08T08:40:04;15.10;99.90
6379;DHT22;3222;48.858;10.128;2023-10-08T08:42:47;15.10;99.90
6379;DHT22;3222;48.858;10.128;2023-10-08T08:45:19;15.20;99.90
6379;DHT22;3222;48.858;10.128;2023-10-08T08:47:50;15.20;99.90
6379;DHT22;3222;48.858;10.128;2023-10-08T08:50:17;15.20;99.90
6379;DHT22;3222;48.858;10.128;2023-10-08T08:52:43;15.20;99.90
6379;DHT22;3222;48.858;10.128;2023-10-08T08:55:11;15.20;99.90
6379;DHT22;3222;48.858;10.128;2023-10-08T08:57:44;15.30;99.90
6379;DHT22;3222;48.858;10.128;2023-10-08T09:00:14;15.40;99.90
6379;DHT22;3222;48.858;10.128;2023-10-08T09:02:42;15.40;99.90
6379;DHT22;3222;48.858;10.128;2023-10-08T09:05:10;15.40;99.90
6379;DHT22;3222;48.858;10.128;2023-10-08T09:08:04;15.50;99.90
6379;DHT22;3222;48.858;10.128;2023-10-08T09:10:32;15.60;99.90
6379;DHT22;3222;48.858;10.128;2023-10-08T09:13:06;15.60;99.90
6379;DHT22;3222;48.858;10.128;2023-10-08T09:15:38;15.60;99.90
6379;DHT22;3222;48.858;10.128;2023-10-08T09:18:04;15.70;99.90
6379;DHT22;3222;48.858;10.128;2023-10-08T09:20:30;15.80;99.90
6379;DHT22;3222;48.858;10.128;2023-10-08T09:23:09;15.90;99.90
6379;DHT22;3222;48.858;10.128;2023-10-08T09:25:42;15.90;99.90
6379;DHT22;3222;48.858;10.128;2023-10-08T09:28:09;15.80;99.90
6379;DHT22;3222;48.858;10.128;2023-10-08T09:30:39;15.90;99.90
6379;DHT22;3222;48.858;10.128;2023-10-08T09:33:10;16.00;99.90
6379;DHT22;3222;48.858;10.128;2023-10-08T09:35:36;16.00;99.90
6379;DHT22;3222;48.858;10.128;2023-10-08T09:38:07;15.90;99.90
6379;DHT22;3222;48.858;10.128;2023-10-08T09:40:38;15.90;99.90
6379;DHT22;3222;48.858;10.128;2023-10-08T09:43:04;16.00;99.90
6379;DHT22;3222;48.858;10.128;2023-10-08T09:45:30;15.90;99.90
6379;DHT22;3222;48.858;10.128;2023-10-08T09:47:56;16.00;99.90
6379;DHT22;3222;48.858;10.128;2023-10-08T09:50:28;16.10;99.90
6379;DHT22;3222;48.858;10.128;2023-10-08T09:53:06;16.30;99.90
6379;DHT22;3222;48.858;10.128;2023-10-08T09:55:33;16.30;99.90
6379;DHT22;3222;48.858;10.128;2023-10-08T09:58:00;16.30;99.90
6379;DHT22;3222;48.858;10.128;2023-10-08T10:00:27;16.40;99.90
6379;DHT22;3222;48.858;10.128;2023-10-08T10:03:00;16.40;99.90
6379;DHT22;3222;48.858;10.128;2023-10-08T10:05:30;16.50;99.90
6379;DHT22;3222;48.858;10.128;2023-10-08T10:07:57;16.50;99.90
6379;DHT22;3222;48.858;10.128;2023-10-08T10:10:30;16.60;99.90
6379;DHT22;3222;48.858;10.128;2023-10-08T10:13:04;16.70;99.90
6379;DHT22;3222;48.858;10.128;2023-10-08T10:15:33;16.60;99.90
6379;DHT22;3222;48.858;10.128;2023-10-08T10:18:26;16.50;99.90
6379;DHT22;3222;48.858;10.128;2023-10-08T10:20:58;16.70;99.90
6379;DHT22;3222;48.858;10.128;2023-10-08T10:23:38;16.70;99.90
6379;DHT22;3222;48.858;10.128;2023-10-08T10:26:20;16.70;99.90
6379;DHT22;3222;48.858;10.128;2023-10-08T10:34:20;16.60;99.90
6379;DHT22;3222;48.858;10.128;2023-10-08T10:36:47;16.90;99.90
6379;DHT22;3222;48.858;10.128;2023-10-08T10:39:18;17.00;99.90
6379;DHT22;3222;48.858;10.128;2023-10-08T10:41:55;17.00;99.90
6379;DHT22;3222;48.858;10.128;2023-10-08T10:44:27;17.10;99.90
6379;DHT22;3222;48.858;10.128;2023-10-08T10:46:56;17.10;99.90
6379;DHT22;3222;48.858;10.128;2023-10-08T10:49:51;17.20;99.90
6379;DHT22;3222;48.858;10.128;2023-10-08T10:52:36;17.20;99.90
6379;DHT22;3222;48.858;10.128;2023-10-08T10:55:18;17.20;99.90
6379;DHT22;3222;48.858;10.128;2023-10-08T10:57:56;17.20;99.90
6379;DHT22;3222;48.858;10.128;2023-10-08T11:00:30;17.20;99.90
6379;DHT22;3222;48.858;10.128;2023-10-08T11:02:59;17.30;99.90
6379;DHT22;3222;48.858;10.128;2023-10-08T11:05:38;17.50;99.90
6379;DHT22;3222;48.858;10.128;2023-10-08T11:08:06;17.50;99.90
6379;DHT22;3222;48.858;10.128;2023-10-08T11:10:39;17.40;99.90
6379;DHT22;3222;48.858;10.128;2023-10-08T11:13:09;17.40;99.90
6379;DHT22;3222;48.858;10.128;2023-10-08T11:15:42;17.50;99.90
6379;DHT22;3222;48.858;10.128;2023-10-08T11:18:13;17.50;99.90
6379;DHT22;3222;48.858;10.128;2023-10-08T11:20:41;17.60;99.90
6379;DHT22;3222;48.858;10.128;2023-10-08T11:23:31;17.60;99.90
6379;DHT22;3222;48.858;10.128;2023-10-08T11:26:00;17.70;99.90
6379;DHT22;3222;48.858;10.128;2023-10-08T11:28:32;17.70;99.90
6379;DHT22;3222;48.858;10.128;2023-10-08T11:31:04;17.70;99.90
6379;DHT22;3222;48.858;10.128;2023-10-08T11:33:45;17.80;99.90
6379;DHT22;3222;48.858;10.128;2023-10-08T11:36:36;17.80;99.90
6379;DHT22;3222;48.858;10.128;2023-10-08T11:39:14;17.70;99.90
6379;DHT22;3222;48.858;10.128;2023-10-08T11:41:56;17.80;99.90
6379;DHT22;3222;48.858;10.128;2023-10-08T11:44:22;17.90;99.90
6379;DHT22;3222;48.858;10.128;2023-10-08T11:46:49;17.90;99.90
6379;DHT22;3222;48.858;10.128;2023-10-08T11:49:18;18.00;99.90
6379;DHT22;3222;48.858;10.128;2023-10-08T11:51:45;18.10;99.90
6379;DHT22;3222;48.858;10.128;2023-10-08T11:54:12;18.10;99.90
6379;DHT22;3222;48.858;10.128;2023-10-08T11:56:38;18.10;99.90
6379;DHT22;3222;48.858;10.128;2023-10-08T11:59:05;18.10;99.90
6379;DHT22;3222;48.858;10.128;2023-10-08T12:01:38;18.20;99.90
6379;DHT22;3222;48.858;10.128;2023-10-08T12:04:08;18.30;99.90
6379;DHT22;3222;48.858;10.128;2023-10-08T12:06:42;18.40;99.90
6379;DHT22;3222;48.858;10.128;2023-10-08T12:09:18;18.50;99.90
6379;DHT22;3222;48.858;10.128;2023-10-08T12:11:47;18.40;99.90
6379;DHT22;3222;48.858;10.128;2023-10-08T12:14:13;18.50;99.90
6379;DHT22;3222;48.858;10.128;2023-10-08T12:16:40;18.60;99.90
6379;DHT22;3222;48.858;10.128;2023-10-08T12:19:07;18.70;99.90
6379;DHT22;3222;48.858;10.128;2023-10-08T12:21:42;18.70;99.90
6379;DHT22;3222;48.858;10.128;2023-10-08T12:24:11;18.70;99.90
6379;DHT22;3222;48.858;10.128;2023-10-08T12:26:38;18.70;99.90
6379;DHT22;3222;48.858;10.128;2023-10-08T12:29:12;18.70;99.90
6379;DHT22;3222;48.858;10.128;2023-10-08T12:31:40;18.70;99.90
6379;DHT22;3222;48.858;10.128;2023-10-08T12:34:06;18.80;99.90
6379;DHT22;3222;48.858;10.128;2023-10-08T12:36:31;18.80;99.90
6379;DHT22;3222;48.858;10.128;2023-10-08T12:39:02;18.80;99.90
6379;DHT22;3222;48.858;10.128;2023-10-08T12:41:34;18.90;99.90
6379;DHT22;3222;48.858;10.128;2023-10-08T12:44:04;18.90;99.90
6379;DHT22;3222;48.858;10.128;2023-10-08T12:46:32;18.90;99.90
6379;DHT22;3222;48.858;10.128;2023-10-08T12:48:59;19.00;99.90
6379;DHT22;3222;48.858;10.128;2023-10-08T12:51:28;19.00;99.90
6379;DHT22;3222;48.858;10.128;2023-10-08T12:53:58;19.00;99.90
6379;DHT22;3222;48.858;10.128;2023-10-08T12:56:25;19.10;99.90
6379;DHT22;3222;48.858;10.128;2023-10-08T12:58:58;19.00;99.90
6379;DHT22;3222;48.858;10.128;2023-10-08T13:01:24;19.10;99.90
6379;DHT22;3222;48.858;10.128;2023-10-08T13:03:54;19.20;99.90
6379;DHT22;3222;48.858;10.128;2023-10-08T13:06:26;19.30;99.90
6379;DHT22;3222;48.858;10.128;2023-10-08T13:08:58;19.30;99.90
6379;DHT22;3222;48.858;10.128;2023-10-08T13:11:28;19.40;99.90
6379;DHT22;3222;48.858;10.128;2023-10-08T13:13:59;19.40;99.90
6379;DHT22;3222;48.858;10.128;2023-10-08T13:16:27;19.40;99.90
6379;DHT22;3222;48.858;10.128;2023-10-08T13:19:00;19.40;99.90
6379;DHT22;3222;48.858;10.128;2023-10-08T13:21:27;19.40;99.90
6379;DHT22;3222;48.858;10.128;2023-10-08T13:23:54;19.50;99.90
6379;DHT22;3222;48.858;10.128;2023-10-08T13:26:26;19.50;99.90
6379;DHT22;3222;48.858;10.128;2023-10-08T13:28:57;19.60;99.90
6379;DHT22;3222;48.858;10.128;2023-10-08T13:31:24;19.70;99.90
6379;DHT22;3222;48.858;10.128;2023-10-08T13:33:50;19.70;99.90
6379;DHT22;3222;48.858;10.128;2023-10-08T13:36:18;19.70;99.90
6379;DHT22;3222;48.858;10.128;2023-10-08T13:38:44;20.00;99.90
6379;DHT22;3222;48.858;10.128;2023-10-08T13:41:12;20.00;99.90
6379;DHT22;3222;48.858;10.128;2023-10-08T13:43:42;20.10;99.90
6379;DHT22;3222;48.858;10.128;2023-10-08T13:46:15;20.10;99.90
6379;DHT22;3222;48.858;10.128;2023-10-08T13:48:46;20.10;99.90
6379;DHT22;3222;48.858;10.128;2023-10-08T13:51:14;20.10;99.90
6379;DHT22;3222;48.858;10.128;2023-10-08T13:53:48;20.20;99.90
6379;DHT22;3222;48.858;10.128;2023-10-08T13:56:19;20.20;99.90
6379;DHT22;3222;48.858;10.128;2023-10-08T13:58:55;20.20;99.90
6379;DHT22;3222;48.858;10.128;2023-10-08T14:01:37;20.10;99.90
6379;DHT22;3222;48.858;10.128;2023-10-08T14:04:04;20.10;99.90
6379;DHT22;3222;48.858;10.128;2023-10-08T14:06:32;20.10;99.90
6379;DHT22;3222;48.858;10.128;2023-10-08T14:08:58;20.10;99.90
6379;DHT22;3222;48.858;10.128;2023-10-08T14:11:26;20.10;99.90
6379;DHT22;3222;48.858;10.128;2023-10-08T14:13:59;20.10;99.90
6379;DHT22;3222;48.858;10.128;2023-10-08T14:16:28;20.20;99.90
6379;DHT22;3222;48.858;10.128;2023-10-08T14:18:55;20.10;99.90
6379;DHT22;3222;48.858;10.128;2023-10-08T14:21:24;20.20;99.90
6379;DHT22;3222;48.858;10.128;2023-10-08T14:23:52;20.10;99.90
6379;DHT22;3222;48.858;10.128;2023-10-08T14:26:19;20.20;99.90
6379;DHT22;3222;48.858;10.128;2023-10-08T14:28:48;20.30;99.90
6379;DHT22;3222;48.858;10.128;2023-10-08T14:31:24;20.30;99.90
6379;DHT22;3222;48.858;10.128;2023-10-08T14:33:52;20.30;99.90
6379;DHT22;3222;48.858;10.128;2023-10-08T14:36:23;20.20;99.90
6379;DHT22;3222;48.858;10.128;2023-10-08T14:39:07;20.30;99.90
6379;DHT22;3222;48.858;10.128;2023-10-08T14:41:51;20.20;99.90
6379;DHT22;3222;48.858;10.128;2023-10-08T14:44:36;20.20;99.90
6379;DHT22;3222;48.858;10.128;2023-10-08T14:47:06;20.20;99.90
6379;DHT22;3222;48.858;10.128;2023-10-08T14:49:32;20.10;99.90
6379;DHT22;3222;48.858;10.128;2023-10-08T14:51:59;20.10;99.90
6379;DHT22;3222;48.858;10.128;2023-10-08T14:54:25;20.10;99.90
6379;DHT22;3222;48.858;10.128;2023-10-08T14:56:51;20.00;99.90
6379;DHT22;3222;48.858;10.128;2023-10-08T14:59:18;20.00;99.90
6379;DHT22;3222;48.858;10.128;2023-10-08T15:01:46;20.00;99.90
6379;DHT22;3222;48.858;10.128;2023-10-08T15:04:13;20.10;99.90
6379;DHT22;3222;48.858;10.128;2023-10-08T15:06:39;20.20;99.90
6379;DHT22;3222;48.858;10.128;2023-10-08T15:09:07;20.10;99.90
6379;DHT22;3222;48.858;10.128;2023-10-08T15:11:34;20.10;99.90
6379;DHT22;3222;48.858;10.128;2023-10-08T15:14:04;20.00;99.90
6379;DHT22;3222;48.858;10.128;2023-10-08T15:16:38;20.00;99.90
6379;DHT22;3222;48.858;10.128;2023-10-08T15:19:05;20.00;99.90
6379;DHT22;3222;48.858;10.128;2023-10-08T15:21:31;20.00;99.90
6379;DHT22;3222;48.858;10.128;2023-10-08T15:23:59;19.90;99.90
6379;DHT22;3222;48.858;10.128;2023-10-08T15:26:36;19.90;99.90
6379;DHT22;3222;48.858;10.128;2023-10-08T15:29:02;19.90;99.90
6379;DHT22;3222;48.858;10.128;2023-10-08T15:31:28;19.80;99.90
6379;DHT22;3222;48.858;10.128;2023-10-08T15:33:54;19.70;99.90
6379;DHT22;3222;48.858;10.128;2023-10-08T15:36:20;19.70;99.90
6379;DHT22;3222;48.858;10.128;2023-10-08T15:38:46;19.50;99.90
6379;DHT22;3222;48.858;10.128;2023-10-08T15:41:12;19.50;99.90
6379;DHT22;3222;48.858;10.128;2023-10-08T15:43:42;19.50;99.90
6379;DHT22;3222;48.858;10.128;2023-10-08T15:46:10;19.40;99.90
6379;DHT22;3222;48.858;10.128;2023-10-08T15:48:36;19.30;99.90
6379;DHT22;3222;48.858;10.128;2023-10-08T15:51:03;19.30;99.90
6379;DHT22;3222;48.858;10.128;2023-10-08T15:53:28;19.20;99.90
6379;DHT22;3222;48.858;10.128;2023-10-08T15:55:56;19.20;99.90
6379;DHT22;3222;48.858;10.128;2023-10-08T15:58:22;19.10;99.90
6379;DHT22;3222;48.858;10.128;2023-10-08T16:00:48;19.10;99.90
6379;DHT22;3222;48.858;10.128;2023-10-08T16:03:13;19.00;99.90
6379;DHT22;3222;48.858;10.128;2023-10-08T16:05:43;19.00;99.90
6379;DHT22;3222;48.858;10.128;2023-10-08T16:08:09;19.00;99.90
6379;DHT22;3222;48.858;10.128;2023-10-08T16:10:34;18.90;99.90
6379;DHT22;3222;48.858;10.128;2023-10-08T16:13:00;18.90;99.90
6379;DHT22;3222;48.858;10.128;2023-10-08T16:15:26;18.90;99.90
6379;DHT22;3222;48.858;10.128;2023-10-08T16:17:52;18.80;99.90
6379;DHT22;3222;48.858;10.128;2023-10-08T16:20:18;18.80;99.90